sensor_id;sensor_type;location;lat;lon;timestamp;pressure;altitude;pressure_sealevel;temperature;humidity
20424;BME280;10371;49.042;8.002;2024-03-07T00:00:44;100458.09;;;7.50;100.00
20424;BME280;10371;49.042;8.002;2024-03-07T00:01:45;100462.09;;;7.56;100.00
20424;BME280;10371;49.042;8.002;2024-03-07T00:02:50;100463.50;;;7.61;100.00
20424;BME280;10371;49.042;8.002;2024-03-07T00:03:51;100459.88;;;7.50;100.00
20424;BME280;10371;49.042;8.002;2024-03-07T00:04:51;100464.28;;;7.48;100.00
20424;BME280;10371;49.042;8.002;2024-03-07T00:05:52;100463.97;;;7.38;100.00
20424;BME280;10371;49.042;8.002;2024-03-07T00:06:52;100458.13;;;7.34;100.00
20424;BME280;10371;49.042;8.002;2024-03-07T00:07:53;100464.66;;;7.42;100.00
20424;BME280;10371;49.042;8.002;2024-03-07T00:08:54;100466.41;;;7.41;100.00
20424;BME280;10371;49.042;8.002;2024-03-07T00:09:55;100458.09;;;7.50;100.00
20424;BME280;10371;49.042;8.002;2024-03-07T00:10:56;100465.13;;;7.48;100.00
20424;BME280;10371;49.042;8.002;2024-03-07T00:11:56;100459.28;;;7.45;100.00
20424;BME280;10371;49.042;8.002;2024-03-07T00:12:56;100460.28;;;7.42;100.00
20424;BME280;10371;49.042;8.002;2024-03-07T00:13:57;100470.47;;;7.45;100.00
20424;BME280;10371;49.042;8.002;2024-03-07T00:14:57;100459.81;;;7.35;100.00
20424;BME280;10371;49.042;8.002;2024-03-07T00:15:57;100464.13;;;7.35;100.00
20424;BME280;10371;49.042;8.002;2024-03-07T00:16:58;100465.56;;;7.41;100.00
20424;BME280;10371;49.042;8.002;2024-03-07T00:17:59;100466.13;;;7.46;100.00
20424;BME280;10371;49.042;8.002;2024-03-07T00:19:00;100470.88;;;7.53;100.00
20424;BME280;10371;49.042;8.002;2024-03-07T00:20:01;100468.91;;;7.43;100.00
20424;BME280;10371;49.042;8.002;2024-03-07T00:21:03;100459.97;;;7.32;100.00
20424;BME280;10371;49.042;8.002;2024-03-07T00:22:04;100464.50;;;7.29;100.00
20424;BME280;10371;49.042;8.002;2024-03-07T00:23:04;100462.44;;;7.20;100.00
20424;BME280;10371;49.042;8.002;2024-03-07T00:24:05;100467.44;;;7.23;100.00
20424;BME280;10371;49.042;8.002;2024-03-07T00:25:05;100463.75;;;7.27;100.00
20424;BME280;10371;49.042;8.002;2024-03-07T00:26:05;100468.19;;;7.25;100.00
20424;BME280;10371;49.042;8.002;2024-03-07T00:27:06;100460.28;;;7.42;100.00
20424;BME280;10371;49.042;8.002;2024-03-07T00:28:07;100470.88;;;7.53;100.00
20424;BME280;10371;49.042;8.002;2024-03-07T00:29:07;100471.31;;;7.46;100.00
20424;BME280;10371;49.042;8.002;2024-03-07T00:30:08;100460.97;;;7.30;100.00
20424;BME280;10371;49.042;8.002;2024-03-07T00:31:13;100465.31;;;7.29;100.00
20424;BME280;10371;49.042;8.002;2024-03-07T00:32:13;100469.31;;;7.35;100.00
20424;BME280;10371;49.042;8.002;2024-03-07T00:33:14;100473.44;;;7.39;100.00
20424;BME280;10371;49.042;8.002;2024-03-07T00:34:14;100470.44;;;7.31;100.00
20424;BME280;10371;49.042;8.002;2024-03-07T00:35:16;100463.19;;;7.22;100.00
20424;BME280;10371;49.042;8.002;2024-03-07T00:36:16;100466.84;;;7.18;100.00
20424;BME280;10371;49.042;8.002;2024-03-07T00:37:17;100466.09;;;7.15;100.00
20424;BME280;10371;49.042;8.002;2024-03-07T00:38:17;100469.56;;;7.16;100.00
20424;BME280;10371;49.042;8.002;2024-03-07T00:39:18;100464.38;;;7.16;100.00
20424;BME280;10371;49.042;8.002;2024-03-07T00:40:19;100467.69;;;7.18;100.00
20424;BME280;10371;49.042;8.002;2024-03-07T00:41:20;100468.69;;;7.15;100.00
20424;BME280;10371;49.042;8.002;2024-03-07T00:42:20;100464.63;;;7.11;100.00
20424;BME280;10371;49.042;8.002;2024-03-07T00:43:22;100464.94;;;7.21;100.00
20424;BME280;10371;49.042;8.002;2024-03-07T00:44:22;100470.56;;;7.13;100.00
20424;BME280;10371;49.042;8.002;2024-03-07T00:45:22;100464.03;;;7.06;100.00
20424;BME280;10371;49.042;8.002;2024-03-07T00:46:23;100472.38;;;7.11;100.00
20424;BME280;10371;49.042;8.002;2024-03-07T00:47:23;100468.63;;;7.01;100.00
20424;BME280;10371;49.042;8.002;2024-03-07T00:48:24;100467.72;;;7.02;100.00
20424;BME280;10371;49.042;8.002;2024-03-07T00:49:24;100466.97;;;7.00;100.00
20424;BME280;10371;49.042;8.002;2024-03-07T00:50:25;100458.09;;;7.04;100.00
20424;BME280;10371;49.042;8.002;2024-03-07T00:51:26;100466.44;;;7.09;100.00
20424;BME280;10371;49.042;8.002;2024-03-07T00:52:26;100464.38;;;7.00;100.00
20424;BME280;10371;49.042;8.002;2024-03-07T00:53:26;100463.72;;;6.97;100.00
20424;BME280;10371;49.042;8.002;2024-03-07T00:54:26;100459.22;;;7.00;100.00
20424;BME280;10371;49.042;8.002;2024-03-07T00:55:27;100463.44;;;7.01;100.00
20424;BME280;10371;49.042;8.002;2024-03-07T00:56:27;100465.38;;;6.98;100.00
20424;BME280;10371;49.042;8.002;2024-03-07T00:57:28;100449.19;;;6.78;100.00
20424;BME280;10371;49.042;8.002;2024-03-07T00:58:29;100457.19;;;6.74;100.00
20424;BME280;10371;49.042;8.002;2024-03-07T00:59:31;100451.53;;;6.67;100.00
20424;BME280;10371;49.042;8.002;2024-03-07T01:00:31;100460.22;;;6.66;100.00
20424;BME280;10371;49.042;8.002;2024-03-07T01:01:32;100458.31;;;6.69;100.00
20424;BME280;10371;49.042;8.002;2024-03-07T01:02:38;100458.63;;;6.63;100.00
20424;BME280;10371;49.042;8.002;2024-03-07T01:03:38;100459.72;;;6.59;100.00
20424;BME280;10371;49.042;8.002;2024-03-07T01:04:39;100459.88;;;6.56;100.00
20424;BME280;10371;49.042;8.002;2024-03-07T01:05:40;100458.38;;;6.52;100.00
20424;BME280;10371;49.042;8.002;2024-03-07T01:06:40;100458.22;;;6.55;100.00
20424;BME280;10371;49.042;8.002;2024-03-07T01:07:41;100449.19;;;6.46;100.00
20424;BME280;10371;49.042;8.002;2024-03-07T01:08:43;100450.66;;;6.35;100.00
20424;BME280;10371;49.042;8.002;2024-03-07T01:09:43;100451.81;;;6.29;100.00
20424;BME280;10371;49.042;8.002;2024-03-07T01:10:43;100451.00;;;6.29;100.00
20424;BME280;10371;49.042;8.002;2024-03-07T01:11:44;100453.81;;;6.24;100.00
20424;BME280;10371;49.042;8.002;2024-03-07T01:12:47;100457.25;;;6.24;100.00
20424;BME280;10371;49.042;8.002;2024-03-07T01:13:50;100463.16;;;6.26;100.00
20424;BME280;10371;49.042;8.002;2024-03-07T01:14:50;100453.06;;;6.22;100.00
20424;BME280;10371;49.042;8.002;2024-03-07T01:15:51;100452.69;;;6.30;100.00
20424;BME280;10371;49.042;8.002;2024-03-07T01:16:51;100460.38;;;6.47;100.00
20424;BME280;10371;49.042;8.002;2024-03-07T01:17:51;100458.22;;;6.55;100.00
20424;BME280;10371;49.042;8.002;2024-03-07T01:18:52;100450.03;;;6.63;100.00
20424;BME280;10371;49.042;8.002;2024-03-07T01:19:52;100457.44;;;6.53;100.00
20424;BME280;10371;49.042;8.002;2024-03-07T01:20:53;100450.50;;;6.38;100.00
20424;BME280;10371;49.042;8.002;2024-03-07T01:21:53;100447.66;;;6.26;100.00
20424;BME280;10371;49.042;8.002;2024-03-07T01:22:53;100450.34;;;6.25;100.00
20424;BME280;10371;49.042;8.002;2024-03-07T01:23:53;100448.56;;;6.25;100.00
20424;BME280;10371;49.042;8.002;2024-03-07T01:24:53;100456.41;;;6.24;100.00
20424;BME280;10371;49.042;8.002;2024-03-07T01:25:55;100452.25;;;6.21;100.00
20424;BME280;10371;49.042;8.002;2024-03-07T01:26:59;100451.31;;;6.22;100.00
20424;BME280;10371;49.042;8.002;2024-03-07T01:28:00;100444.41;;;6.23;100.00
20424;BME280;10371;49.042;8.002;2024-03-07T01:29:00;100444.31;;;6.24;100.00
20424;BME280;10371;49.042;8.002;2024-03-07T01:30:01;100452.69;;;6.30;100.00
20424;BME280;10371;49.042;8.002;2024-03-07T01:31:01;100443.22;;;6.29;100.00
20424;BME280;10371;49.042;8.002;2024-03-07T01:32:02;100446.41;;;6.34;100.00
20424;BME280;10371;49.042;8.002;2024-03-07T01:33:03;100449.16;;;6.31;100.00
20424;BME280;10371;49.042;8.002;2024-03-07T01:34:03;100452.34;;;6.36;100.00
20424;BME280;10371;49.042;8.002;2024-03-07T01:35:04;100448.94;;;6.35;100.00
20424;BME280;10371;49.042;8.002;2024-03-07T01:36:07;100447.09;;;6.37;100.00
20424;BME280;10371;49.042;8.002;2024-03-07T01:37:07;100447.59;;;6.44;100.00
20424;BME280;10371;49.042;8.002;2024-03-07T01:38:08;100455.38;;;6.44;100.00
20424;BME280;10371;49.042;8.002;2024-03-07T01:39:10;100454.28;;;6.48;100.00
20424;BME280;10371;49.042;8.002;2024-03-07T01:40:11;100450.84;;;6.47;100.00
20424;BME280;10371;49.042;8.002;2024-03-07T01:41:11;100455.28;;;6.45;100.00
20424;BME280;10371;49.042;8.002;2024-03-07T01:42:12;100451.78;;;6.46;100.00
20424;BME280;10371;49.042;8.002;2024-03-07T01:43:12;100449.94;;;6.48;100.00
20424;BME280;10371;49.042;8.002;2024-03-07T01:44:12;100445.50;;;6.51;100.00
20424;BME280;10371;49.042;8.002;2024-03-07T01:45:13;100449.63;;;6.55;100.00
20424;BME280;10371;49.042;8.002;2024-03-07T01:46:14;100446.00;;;6.57;100.00
20424;BME280;10371;49.042;8.002;2024-03-07T01:47:14;100447.44;;;6.63;100.00
20424;BME280;10371;49.042;8.002;2024-03-07T01:48:20;100442.34;;;6.61;100.00
20424;BME280;10371;49.042;8.002;2024-03-07T01:49:23;100443.19;;;6.62;100.00
20424;BME280;10371;49.042;8.002;2024-03-07T01:50:24;100443.19;;;6.62;100.00
20424;BME280;10371;49.042;8.002;2024-03-07T01:51:24;100442.25;;;6.63;100.00
20424;BME280;10371;49.042;8.002;2024-03-07T01:52:25;100441.53;;;6.61;100.00
20424;BME280;10371;49.042;8.002;2024-03-07T01:53:26;100441.25;;;6.65;100.00
20424;BME280;10371;49.042;8.002;2024-03-07T01:54:27;100437.66;;;6.68;100.00
20424;BME280;10371;49.042;8.002;2024-03-07T01:55:28;100439.53;;;6.66;100.00
20424;BME280;10371;49.042;8.002;2024-03-07T01:56:28;100436.84;;;6.67;100.00
20424;BME280;10371;49.042;8.002;2024-03-07T01:57:29;100439.84;;;6.76;100.00
20424;BME280;10371;49.042;8.002;2024-03-07T01:58:30;100439.84;;;6.76;100.00
20424;BME280;10371;49.042;8.002;2024-03-07T01:59:32;100438.34;;;6.87;100.00
20424;BME280;10371;49.042;8.002;2024-03-07T02:00:33;100441.84;;;6.86;100.00
20424;BME280;10371;49.042;8.002;2024-03-07T02:01:33;100433.56;;;6.80;100.00
20424;BME280;10371;49.042;8.002;2024-03-07T02:02:36;100428.84;;;6.72;100.00
20424;BME280;10371;49.042;8.002;2024-03-07T02:03:36;100437.50;;;6.87;100.00
20424;BME280;10371;49.042;8.002;2024-03-07T02:04:36;100431.97;;;6.93;100.00
20424;BME280;10371;49.042;8.002;2024-03-07T02:05:37;100437.25;;;6.91;100.00
20424;BME280;10371;49.042;8.002;2024-03-07T02:06:37;100434.09;;;6.86;100.00
20424;BME280;10371;49.042;8.002;2024-03-07T02:07:37;100438.59;;;6.83;100.00
20424;BME280;10371;49.042;8.002;2024-03-07T02:08:39;100435.25;;;6.97;100.00
20424;BME280;10371;49.042;8.002;2024-03-07T02:09:39;100427.72;;;6.92;100.00
20424;BME280;10371;49.042;8.002;2024-03-07T02:10:39;100439.16;;;6.88;100.00
20424;BME280;10371;49.042;8.002;2024-03-07T02:11:39;100426.38;;;6.85;100.00
20424;BME280;10371;49.042;8.002;2024-03-07T02:12:40;100433.97;;;6.88;100.00
20424;BME280;10371;49.042;8.002;2024-03-07T02:13:40;100433.97;;;6.88;100.00
20424;BME280;10371;49.042;8.002;2024-03-07T02:14:41;100432.56;;;6.82;100.00
20424;BME280;10371;49.042;8.002;2024-03-07T02:15:41;100434.31;;;6.82;100.00
20424;BME280;10371;49.042;8.002;2024-03-07T02:16:43;100433.50;;;6.81;100.00
20424;BME280;10371;49.042;8.002;2024-03-07T02:17:44;100433.16;;;6.87;100.00
20424;BME280;10371;49.042;8.002;2024-03-07T02:18:44;100437.31;;;6.90;100.00
20424;BME280;10371;49.042;8.002;2024-03-07T02:19:45;100438.25;;;6.89;100.00
20424;BME280;10371;49.042;8.002;2024-03-07T02:20:46;100432.66;;;6.81;100.00
20424;BME280;10371;49.042;8.002;2024-03-07T02:21:47;100435.84;;;6.86;100.00
20424;BME280;10371;49.042;8.002;2024-03-07T02:22:47;100436.44;;;6.91;100.00
20424;BME280;10371;49.042;8.002;2024-03-07T02:23:47;100423.31;;;6.94;100.00
20424;BME280;10371;49.042;8.002;2024-03-07T02:24:47;100430.50;;;6.89;100.00
20424;BME280;10371;49.042;8.002;2024-03-07T02:25:48;100427.97;;;6.87;100.00
20424;BME280;10371;49.042;8.002;2024-03-07T02:26:48;100424.09;;;6.80;100.00
20424;BME280;10371;49.042;8.002;2024-03-07T02:27:48;100428.09;;;6.86;100.00
20424;BME280;10371;49.042;8.002;2024-03-07T02:28:49;100424.72;;;6.84;100.00
20424;BME280;10371;49.042;8.002;2024-03-07T02:29:49;100429.31;;;6.79;100.00
20424;BME280;10371;49.042;8.002;2024-03-07T02:30:51;100425.09;;;6.78;100.00
20424;BME280;10371;49.042;8.002;2024-03-07T02:31:51;100428.97;;;6.85;100.00
20424;BME280;10371;49.042;8.002;2024-03-07T02:32:51;100427.31;;;6.84;100.00
20424;BME280;10371;49.042;8.002;2024-03-07T02:33:54;100425.25;;;6.75;100.00
20424;BME280;10371;49.042;8.002;2024-03-07T02:34:55;100424.25;;;6.77;100.00
20424;BME280;10371;49.042;8.002;2024-03-07T02:35:55;100430.97;;;6.80;100.00
20424;BME280;10371;49.042;8.002;2024-03-07T02:36:55;100429.66;;;6.72;100.00
20424;BME280;10371;49.042;8.002;2024-03-07T02:37:56;100421.50;;;6.64;100.00
20424;BME280;10371;49.042;8.002;2024-03-07T02:38:56;100421.66;;;6.61;100.00
20424;BME280;10371;49.042;8.002;2024-03-07T02:39:57;100422.91;;;6.70;100.00
20424;BME280;10371;49.042;8.002;2024-03-07T02:40:58;100422.84;;;6.71;100.00
20424;BME280;10371;49.042;8.002;2024-03-07T02:41:59;100414.50;;;6.66;100.00
20424;BME280;10371;49.042;8.002;2024-03-07T02:42:59;100423.16;;;6.65;100.00
20424;BME280;10371;49.042;8.002;2024-03-07T02:44:00;100412.97;;;6.62;100.00
20424;BME280;10371;49.042;8.002;2024-03-07T02:45:03;100415.38;;;6.65;100.00
20424;BME280;10371;49.042;8.002;2024-03-07T02:46:04;100411.78;;;6.68;100.00
20424;BME280;10371;49.042;8.002;2024-03-07T02:47:05;100415.91;;;6.72;100.00
20424;BME280;10371;49.042;8.002;2024-03-07T02:48:06;100414.50;;;6.66;100.00
20424;BME280;10371;49.042;8.002;2024-03-07T02:49:09;100413.91;;;6.61;100.00
20424;BME280;10371;49.042;8.002;2024-03-07T02:50:10;100414.50;;;6.66;100.00
20424;BME280;10371;49.042;8.002;2024-03-07T02:51:11;100412.78;;;6.65;100.00
20424;BME280;10371;49.042;8.002;2024-03-07T02:52:14;100415.50;;;6.64;100.00
20424;BME280;10371;49.042;8.002;2024-03-07T02:53:15;100416.16;;;6.67;100.00
20424;BME280;10371;49.042;8.002;2024-03-07T02:54:15;100420.84;;;6.61;100.00
20424;BME280;10371;49.042;8.002;2024-03-07T02:55:15;100415.50;;;6.64;100.00
20424;BME280;10371;49.042;8.002;2024-03-07T02:56:16;100409.66;;;6.60;100.00
20424;BME280;10371;49.042;8.002;2024-03-07T02:57:16;100414.66;;;6.63;100.00
20424;BME280;10371;49.042;8.002;2024-03-07T02:58:17;100413.66;;;6.50;100.00
20424;BME280;10371;49.042;8.002;2024-03-07T02:59:17;100404.06;;;6.52;100.00
20424;BME280;10371;49.042;8.002;2024-03-07T03:00:17;100402.78;;;6.59;100.00
20424;BME280;10371;49.042;8.002;2024-03-07T03:01:26;100417.91;;;6.51;100.00
20424;BME280;10371;49.042;8.002;2024-03-07T03:02:27;100405.53;;;6.40;100.00
20424;BME280;10371;49.042;8.002;2024-03-07T03:03:27;100402.28;;;6.37;100.00
20424;BME280;10371;49.042;8.002;2024-03-07T03:04:27;100405.38;;;6.43;100.00
20424;BME280;10371;49.042;8.002;2024-03-07T03:05:28;100410.22;;;6.49;99.23
20424;BME280;10371;49.042;8.002;2024-03-07T03:06:28;100410.97;;;6.52;98.81
20424;BME280;10371;49.042;8.002;2024-03-07T03:07:29;100408.81;;;6.44;97.91
20424;BME280;10371;49.042;8.002;2024-03-07T03:08:29;100407.81;;;6.46;97.44
20424;BME280;10371;49.042;8.002;2024-03-07T03:09:29;100409.81;;;6.41;96.61
20424;BME280;10371;49.042;8.002;2024-03-07T03:10:30;100403.47;;;6.31;96.05
20424;BME280;10371;49.042;8.002;2024-03-07T03:11:31;100400.22;;;6.28;95.72
20424;BME280;10371;49.042;8.002;2024-03-07T03:12:31;100403.84;;;6.23;95.83
20424;BME280;10371;49.042;8.002;2024-03-07T03:13:31;100399.78;;;6.19;95.69
20424;BME280;10371;49.042;8.002;2024-03-07T03:14:32;100397.34;;;6.16;95.70
20424;BME280;10371;49.042;8.002;2024-03-07T03:15:33;100400.84;;;6.15;95.30
20424;BME280;10371;49.042;8.002;2024-03-07T03:16:33;100402.44;;;6.02;95.14
20424;BME280;10371;49.042;8.002;2024-03-07T03:17:33;100401.19;;;5.92;94.94
20424;BME280;10371;49.042;8.002;2024-03-07T03:18:34;100401.56;;;6.01;95.55
20424;BME280;10371;49.042;8.002;2024-03-07T03:19:34;100397.19;;;5.86;95.65
20424;BME280;10371;49.042;8.002;2024-03-07T03:20:38;100400.00;;;5.81;95.90
20424;BME280;10371;49.042;8.002;2024-03-07T03:21:39;100397.72;;;5.75;96.27
20424;BME280;10371;49.042;8.002;2024-03-07T03:22:40;100400.97;;;5.79;95.92
20424;BME280;10371;49.042;8.002;2024-03-07T03:23:44;100394.63;;;5.69;95.40
20424;BME280;10371;49.042;8.002;2024-03-07T03:24:44;100389.81;;;5.78;95.02
20424;BME280;10371;49.042;8.002;2024-03-07T03:25:44;100394.75;;;5.83;94.47
20424;BME280;10371;49.042;8.002;2024-03-07T03:26:45;100388.59;;;5.86;94.40
20424;BME280;10371;49.042;8.002;2024-03-07T03:27:47;100391.13;;;5.70;94.11
20424;BME280;10371;49.042;8.002;2024-03-07T03:28:47;100390.63;;;5.63;93.76
20424;BME280;10371;49.042;8.002;2024-03-07T03:29:47;100394.88;;;5.64;94.25
20424;BME280;10371;49.042;8.002;2024-03-07T03:30:50;100396.06;;;5.57;94.63
20424;BME280;10371;49.042;8.002;2024-03-07T03:31:51;100389.72;;;5.47;94.95
20424;BME280;10371;49.042;8.002;2024-03-07T03:32:52;100395.88;;;5.44;95.45
20424;BME280;10371;49.042;8.002;2024-03-07T03:33:52;100398.97;;;5.51;95.67
20424;BME280;10371;49.042;8.002;2024-03-07T03:34:52;100393.19;;;5.46;95.98
20424;BME280;10371;49.042;8.002;2024-03-07T03:35:53;100396.34;;;5.35;95.98
20424;BME280;10371;49.042;8.002;2024-03-07T03:36:55;100397.78;;;5.41;96.50
20424;BME280;10371;49.042;8.002;2024-03-07T03:37:55;100396.25;;;5.36;96.46
20424;BME280;10371;49.042;8.002;2024-03-07T03:38:55;100399.97;;;5.31;96.17
20424;BME280;10371;49.042;8.002;2024-03-07T03:39:56;100402.66;;;5.29;95.85
20424;BME280;10371;49.042;8.002;2024-03-07T03:40:56;100398.69;;;5.40;95.94
20424;BME280;10371;49.042;8.002;2024-03-07T03:41:57;100390.63;;;5.28;95.69
20424;BME280;10371;49.042;8.002;2024-03-07T03:42:57;100397.75;;;5.23;95.78
20424;BME280;10371;49.042;8.002;2024-03-07T03:43:57;100398.69;;;5.22;95.76
20424;BME280;10371;49.042;8.002;2024-03-07T03:44:58;100394.72;;;5.15;96.02
20424;BME280;10371;49.042;8.002;2024-03-07T03:45:59;100391.41;;;5.13;96.65
20424;BME280;10371;49.042;8.002;2024-03-07T03:46:59;100390.16;;;5.03;97.00
20424;BME280;10371;49.042;8.002;2024-03-07T03:48:04;100386.50;;;5.07;98.58
20424;BME280;10371;49.042;8.002;2024-03-07T03:49:04;100389.88;;;5.09;98.56
20424;BME280;10371;49.042;8.002;2024-03-07T03:50:07;100384.38;;;4.98;99.45
20424;BME280;10371;49.042;8.002;2024-03-07T03:51:08;100391.44;;;4.94;99.52
20424;BME280;10371;49.042;8.002;2024-03-07T03:52:08;100387.19;;;4.93;100.00
20424;BME280;10371;49.042;8.002;2024-03-07T03:53:09;100383.91;;;4.89;100.00
20424;BME280;10371;49.042;8.002;2024-03-07T03:54:09;100383.09;;;4.89;100.00
20424;BME280;10371;49.042;8.002;2024-03-07T03:55:10;100388.25;;;4.89;100.00
20424;BME280;10371;49.042;8.002;2024-03-07T03:56:11;100384.69;;;4.91;100.00
20424;BME280;10371;49.042;8.002;2024-03-07T03:57:12;100383.91;;;4.89;100.00
20424;BME280;10371;49.042;8.002;2024-03-07T03:58:12;100385.72;;;4.87;100.00
20424;BME280;10371;49.042;8.002;2024-03-07T03:59:12;100384.84;;;4.88;100.00
20424;BME280;10371;49.042;8.002;2024-03-07T04:00:13;100380.72;;;4.84;100.00
20424;BME280;10371;49.042;8.002;2024-03-07T04:01:13;100374.19;;;4.77;100.00
20424;BME280;10371;49.042;8.002;2024-03-07T04:02:15;100385.19;;;4.81;100.00
20424;BME280;10371;49.042;8.002;2024-03-07T04:03:17;100382.72;;;4.79;100.00
20424;BME280;10371;49.042;8.002;2024-03-07T04:04:17;100386.94;;;4.80;100.00
20424;BME280;10371;49.042;8.002;2024-03-07T04:05:19;100386.19;;;4.78;100.00
20424;BME280;10371;49.042;8.002;2024-03-07T04:06:20;100388.00;;;4.76;100.00
20424;BME280;10371;49.042;8.002;2024-03-07T04:07:21;100379.34;;;4.77;100.00
20424;BME280;10371;49.042;8.002;2024-03-07T04:08:21;100384.38;;;4.80;100.00
20424;BME280;10371;49.042;8.002;2024-03-07T04:09:21;100383.38;;;4.83;100.00
20424;BME280;10371;49.042;8.002;2024-03-07T04:10:23;100377.25;;;4.85;100.00
20424;BME280;10371;49.042;8.002;2024-03-07T04:11:23;100373.75;;;4.86;100.00
20424;BME280;10371;49.042;8.002;2024-03-07T04:12:24;100375.03;;;4.95;100.00
20424;BME280;10371;49.042;8.002;2024-03-07T04:13:26;100382.63;;;4.98;100.00
20424;BME280;10371;49.042;8.002;2024-03-07T04:14:27;100376.59;;;4.99;100.00
20424;BME280;10371;49.042;8.002;2024-03-07T04:15:27;100378.19;;;5.02;100.00
20424;BME280;10371;49.042;8.002;2024-03-07T04:16:31;100377.19;;;5.04;100.00
20424;BME280;10371;49.042;8.002;2024-03-07T04:17:31;100375.97;;;5.11;100.00
20424;BME280;10371;49.042;8.002;2024-03-07T04:18:32;100376.97;;;5.09;100.00
20424;BME280;10371;49.042;8.002;2024-03-07T04:19:32;100377.09;;;5.06;100.00
20424;BME280;10371;49.042;8.002;2024-03-07T04:20:33;100374.75;;;5.01;100.00
20424;BME280;10371;49.042;8.002;2024-03-07T04:21:33;100379.84;;;5.03;100.00
20424;BME280;10371;49.042;8.002;2024-03-07T04:22:34;100374.53;;;5.06;100.00
20424;BME280;10371;49.042;8.002;2024-03-07T04:23:34;100374.63;;;5.04;100.00
20424;BME280;10371;49.042;8.002;2024-03-07T04:24:35;100370.28;;;5.05;100.00
20424;BME280;10371;49.042;8.002;2024-03-07T04:25:35;100371.94;;;5.06;100.00
20424;BME280;10371;49.042;8.002;2024-03-07T04:26:36;100371.34;;;5.01;100.00
20424;BME280;10371;49.042;8.002;2024-03-07T04:27:36;100371.50;;;4.98;100.00
20424;BME280;10371;49.042;8.002;2024-03-07T04:28:37;100375.22;;;5.09;100.00
20424;BME280;10371;49.042;8.002;2024-03-07T04:29:37;100374.38;;;5.26;100.00
20424;BME280;10371;49.042;8.002;2024-03-07T04:30:37;100383.25;;;5.21;100.00
20424;BME280;10371;49.042;8.002;2024-03-07T04:31:37;100376.06;;;5.10;100.00
20424;BME280;10371;49.042;8.002;2024-03-07T04:32:38;100377.25;;;5.03;100.00
20424;BME280;10371;49.042;8.002;2024-03-07T04:33:39;100379.91;;;5.01;100.00
20424;BME280;10371;49.042;8.002;2024-03-07T04:34:40;100385.69;;;5.06;100.00
20424;BME280;10371;49.042;8.002;2024-03-07T04:35:40;100381.50;;;5.04;100.00
20424;BME280;10371;49.042;8.002;2024-03-07T04:36:40;100380.63;;;5.05;100.00
20424;BME280;10371;49.042;8.002;2024-03-07T04:37:41;100376.06;;;5.10;99.80
20424;BME280;10371;49.042;8.002;2024-03-07T04:38:42;100374.16;;;5.13;99.65
20424;BME280;10371;49.042;8.002;2024-03-07T04:39:45;100379.47;;;5.10;98.41
20424;BME280;10371;49.042;8.002;2024-03-07T04:40:45;100378.66;;;5.10;98.59
20424;BME280;10371;49.042;8.002;2024-03-07T04:41:46;100373.09;;;5.18;98.17
20424;BME280;10371;49.042;8.002;2024-03-07T04:42:49;100371.44;;;5.17;97.56
20424;BME280;10371;49.042;8.002;2024-03-07T04:43:52;100372.81;;;5.24;97.85
20424;BME280;10371;49.042;8.002;2024-03-07T04:44:52;100369.16;;;5.28;97.19
20424;BME280;10371;49.042;8.002;2024-03-07T04:45:52;100369.38;;;5.23;96.30
20424;BME280;10371;49.042;8.002;2024-03-07T04:46:52;100371.28;;;5.20;96.10
20424;BME280;10371;49.042;8.002;2024-03-07T04:47:56;100366.25;;;5.17;96.07
20424;BME280;10371;49.042;8.002;2024-03-07T04:48:57;100364.59;;;5.15;95.74
20424;BME280;10371;49.042;8.002;2024-03-07T04:49:57;100367.78;;;5.21;95.36
20424;BME280;10371;49.042;8.002;2024-03-07T04:50:58;100362.56;;;5.05;95.35
20424;BME280;10371;49.042;8.002;2024-03-07T04:52:00;100363.44;;;5.04;95.18
20424;BME280;10371;49.042;8.002;2024-03-07T04:53:00;100369.53;;;5.03;95.14
20424;BME280;10371;49.042;8.002;2024-03-07T04:54:00;100357.53;;;5.02;95.36
20424;BME280;10371;49.042;8.002;2024-03-07T04:55:01;100359.97;;;5.05;95.29
20424;BME280;10371;49.042;8.002;2024-03-07T04:56:01;100354.03;;;5.03;95.09
20424;BME280;10371;49.042;8.002;2024-03-07T04:57:01;100357.53;;;5.02;95.13
20424;BME280;10371;49.042;8.002;2024-03-07T04:58:02;100354.34;;;4.97;95.52
20424;BME280;10371;49.042;8.002;2024-03-07T04:59:02;100356.63;;;4.85;95.30
20424;BME280;10371;49.042;8.002;2024-03-07T05:00:03;100357.00;;;4.95;95.50
20424;BME280;10371;49.042;8.002;2024-03-07T05:01:03;100353.13;;;5.04;95.47
20424;BME280;10371;49.042;8.002;2024-03-07T05:02:03;100348.34;;;4.96;94.83
20424;BME280;10371;49.042;8.002;2024-03-07T05:03:04;100361.31;;;4.95;94.57
20424;BME280;10371;49.042;8.002;2024-03-07T05:04:08;100353.53;;;4.96;94.33
20424;BME280;10371;49.042;8.002;2024-03-07T05:05:08;100359.06;;;5.06;94.49
20424;BME280;10371;49.042;8.002;2024-03-07T05:06:09;100359.44;;;5.15;94.22
20424;BME280;10371;49.042;8.002;2024-03-07T05:07:09;100359.34;;;5.17;93.97
20424;BME280;10371;49.042;8.002;2024-03-07T05:08:09;100364.38;;;5.03;93.47
20424;BME280;10371;49.042;8.002;2024-03-07T05:09:10;100360.19;;;5.00;93.56
20424;BME280;10371;49.042;8.002;2024-03-07T05:10:22;100364.44;;;5.19;94.03
20424;BME280;10371;49.042;8.002;2024-03-07T05:11:23;100358.88;;;5.26;93.38
20424;BME280;10371;49.042;8.002;2024-03-07T05:12:23;100364.06;;;5.44;93.35
20424;BME280;10371;49.042;8.002;2024-03-07T05:13:23;100363.50;;;5.37;92.30
20424;BME280;10371;49.042;8.002;2024-03-07T05:14:24;100369.56;;;5.53;92.41
20424;BME280;10371;49.042;8.002;2024-03-07T05:15:27;100358.47;;;5.51;91.45
20424;BME280;10371;49.042;8.002;2024-03-07T05:16:29;100361.22;;;5.48;91.34
20424;BME280;10371;49.042;8.002;2024-03-07T05:17:30;100355.88;;;5.35;91.33
20424;BME280;10371;49.042;8.002;2024-03-07T05:18:33;100363.00;;;5.30;91.21
20424;BME280;10371;49.042;8.002;2024-03-07T05:19:34;100362.59;;;5.21;91.62